createdAt,value
2019-02-04T00:01:55.423Z,3.90
2019-02-04T00:04:26.089Z,3.50
2019-02-04T00:06:55.601Z,3.37
2019-02-04T00:09:25.361Z,3.40
2019-02-04T00:11:55.402Z,3.20
2019-02-04T00:14:34.406Z,3.60
2019-02-04T00:17:04.920Z,3.30
2019-02-04T00:19:34.238Z,4.03
2019-02-04T00:22:03.859Z,3.30
2019-02-04T00:24:33.667Z,3.70
2019-02-04T00:27:05.410Z,3.37
2019-02-04T00:29:35.004Z,3.57
2019-02-04T00:32:04.330Z,3.50
2019-02-04T00:34:34.986Z,3.53
2019-02-04T00:37:04.840Z,3.80
2019-02-04T00:39:34.074Z,3.30
2019-02-04T00:42:03.241Z,3.57
2019-02-04T00:44:32.440Z,3.33
2019-02-04T00:47:03.949Z,3.57
2019-02-04T00:49:41.894Z,3.67
2019-02-04T00:52:10.815Z,3.67
2019-02-04T00:54:40.224Z,3.47
2019-02-04T00:57:10.257Z,3.10
2019-02-04T00:59:39.632Z,3.27
2019-02-04T01:02:09.264Z,3.17
2019-02-04T01:04:38.988Z,3.60
2019-02-04T01:07:09.145Z,3.20
2019-02-04T01:09:39.215Z,3.00
2019-02-04T01:12:10.572Z,2.93
2019-02-04T01:14:39.805Z,3.17
2019-02-04T01:17:09.438Z,3.40
2019-02-04T01:19:38.791Z,3.43
2019-02-04T01:22:10.107Z,3.23
2019-02-04T01:24:38.881Z,3.10
2019-02-04T01:27:08.135Z,2.87
2019-02-04T01:29:37.622Z,2.87
2019-02-04T01:32:06.843Z,2.53
2019-02-04T01:34:45.841Z,3.20
2019-02-04T01:37:14.873Z,2.83
2019-02-04T01:39:44.223Z,2.60
2019-02-04T01:42:13.608Z,2.70
2019-02-04T01:44:43.383Z,2.70
2019-02-04T01:47:14.696Z,2.50
2019-02-04T01:49:43.553Z,2.97
2019-02-04T01:52:13.083Z,2.60
2019-02-04T01:54:42.537Z,2.73
2019-02-04T01:57:13.253Z,2.33
2019-02-04T01:59:45.543Z,2.40
2019-02-04T02:02:16.868Z,2.53
2019-02-04T02:04:46.210Z,2.43
2019-02-04T02:07:17.582Z,2.37
2019-02-04T02:09:47.445Z,2.40
2019-02-04T02:12:16.737Z,2.30
2019-02-04T02:14:46.230Z,2.70
2019-02-04T02:17:25.864Z,2.30
2019-02-04T02:19:50.371Z,2.03
2019-02-04T02:22:20.241Z,2.73
2019-02-04T02:24:49.338Z,2.73
2019-02-04T02:27:18.656Z,2.40
2019-02-04T02:29:47.794Z,2.70
2019-02-04T02:32:16.965Z,2.37
2019-02-04T02:34:46.109Z,2.70
2019-02-04T02:37:15.739Z,2.83
2019-02-04T02:39:44.814Z,2.60
2019-02-04T02:42:14.090Z,2.70
2019-02-04T02:44:43.477Z,2.73
2019-02-04T02:47:12.623Z,2.80
2019-02-04T02:49:41.973Z,2.97
2019-02-04T02:52:11.523Z,2.63
2019-02-04T02:54:48.408Z,2.50
2019-02-04T02:57:18.481Z,2.87
2019-02-04T02:59:47.959Z,2.63
2019-02-04T03:02:17.167Z,2.30
2019-02-04T03:04:47.210Z,2.43
2019-02-04T03:07:16.406Z,2.40
2019-02-04T03:09:45.737Z,2.50
2019-02-04T03:12:15.189Z,3.13
2019-02-04T03:14:44.731Z,2.40
2019-02-04T03:17:19.747Z,2.67
2019-02-04T03:19:49.572Z,2.70
2019-02-04T03:22:20.344Z,2.90
2019-02-04T03:24:49.870Z,3.13
2019-02-04T03:27:19.802Z,2.63
2019-02-04T03:29:49.138Z,2.37
2019-02-04T03:32:18.687Z,2.27
2019-02-04T03:34:47.849Z,2.43
2019-02-04T03:37:17.530Z,2.80
2019-02-04T03:39:47.017Z,2.30
2019-02-04T03:42:16.200Z,2.80
2019-02-04T03:44:45.652Z,2.57
2019-02-04T03:47:15.855Z,2.57
2019-02-04T03:49:46.280Z,2.67
2019-02-04T03:52:15.611Z,2.30
2019-02-04T03:54:44.824Z,2.60
2019-02-04T03:57:14.063Z,2.37
2019-02-04T03:59:43.795Z,2.40
2019-02-04T04:02:13.043Z,3.00
2019-02-04T04:04:42.296Z,2.40
2019-02-04T04:07:11.544Z,2.07
2019-02-04T04:09:40.859Z,2.20
2019-02-04T04:12:10.231Z,2.60
2019-02-04T04:14:39.657Z,2.60
2019-02-04T04:17:09.169Z,2.50
2019-02-04T04:19:38.880Z,2.93
2019-02-04T04:22:08.422Z,2.93
2019-02-04T04:24:37.857Z,2.97
2019-02-04T04:27:07.109Z,2.73
2019-02-04T04:29:37.032Z,3.10
2019-02-04T04:32:06.562Z,3.13
2019-02-04T04:34:35.732Z,2.70
2019-02-04T04:37:05.197Z,3.87
2019-02-04T04:39:34.429Z,2.73
2019-02-04T04:42:04.525Z,2.63
2019-02-04T04:44:33.949Z,2.93
2019-02-04T04:47:18.414Z,3.07
2019-02-04T04:49:47.615Z,3.20
2019-02-04T04:52:17.019Z,3.07
2019-02-04T04:54:46.206Z,3.70
2019-02-04T04:57:15.534Z,3.60
2019-02-04T04:59:44.677Z,3.87
2019-02-04T05:02:13.778Z,3.10
2019-02-04T05:04:43.069Z,3.50
2019-02-04T05:07:12.267Z,3.47
2019-02-04T05:09:42.334Z,3.20
2019-02-04T05:12:11.576Z,3.47
2019-02-04T05:14:40.733Z,3.37
2019-02-04T05:17:10.245Z,2.80
2019-02-04T05:19:39.419Z,3.23
2019-02-04T05:22:08.533Z,2.73
2019-02-04T05:24:37.774Z,2.93
2019-02-04T05:27:09.972Z,2.97
2019-02-04T05:29:39.224Z,3.20
2019-02-04T05:32:20.527Z,3.17
2019-02-04T05:34:52.873Z,3.57
2019-02-04T05:37:27.612Z,3.20
2019-02-04T05:39:57.430Z,3.80
2019-02-04T05:42:26.760Z,3.30
2019-02-04T05:44:55.920Z,3.60
2019-02-04T05:47:28.433Z,2.77
2019-02-04T05:49:57.642Z,2.87
2019-02-04T05:52:26.921Z,2.87
2019-02-04T05:54:56.046Z,2.93
2019-02-04T05:57:25.261Z,3.30
2019-02-04T05:59:54.586Z,3.63
2019-02-04T06:02:23.737Z,3.20
2019-02-04T06:04:53.026Z,3.77
2019-02-04T06:07:22.132Z,3.20
2019-02-04T06:09:51.396Z,3.60
2019-02-04T06:12:20.590Z,3.10
2019-02-04T06:14:50.272Z,3.77
2019-02-04T06:17:19.633Z,3.27
2019-02-04T06:19:50.350Z,3.73
2019-02-04T06:22:22.007Z,4.30
2019-02-04T06:24:51.406Z,3.07
2019-02-04T06:27:20.660Z,3.37
2019-02-04T06:29:50.786Z,3.43
2019-02-04T06:32:19.910Z,3.83
2019-02-04T06:34:49.329Z,3.40
2019-02-04T06:37:18.524Z,3.10
2019-02-04T06:39:47.910Z,3.20
2019-02-04T06:42:17.404Z,3.63
2019-02-04T06:44:46.530Z,3.70
2019-02-04T06:47:15.826Z,3.73
2019-02-04T06:49:45.124Z,4.13
2019-02-04T06:52:22.860Z,4.00
2019-02-04T06:54:52.244Z,4.30
2019-02-04T06:57:21.534Z,3.80
2019-02-04T06:59:51.949Z,4.03
2019-02-04T07:02:21.294Z,4.37
2019-02-04T07:04:51.871Z,4.17
2019-02-04T07:07:21.838Z,3.97
2019-02-04T07:09:51.096Z,3.57
2019-02-04T07:12:20.531Z,3.90
2019-02-04T07:14:51.370Z,3.97
2019-02-04T07:17:21.031Z,4.10
2019-02-04T07:19:50.323Z,3.87
2019-02-04T07:22:19.609Z,4.07
2019-02-04T07:24:49.708Z,4.40
2019-02-04T07:27:18.997Z,4.20
2019-02-04T07:29:48.298Z,3.67
2019-02-04T07:32:17.599Z,3.67
2019-02-04T07:34:46.726Z,3.33
2019-02-04T07:37:15.886Z,3.50
2019-02-04T07:39:45.734Z,3.80
2019-02-04T07:42:14.971Z,3.20
2019-02-04T07:44:44.271Z,3.37
2019-02-04T07:47:13.551Z,3.03
2019-02-04T07:49:42.757Z,2.73
2019-02-04T07:52:12.097Z,3.57
2019-02-04T07:54:42.833Z,2.70
2019-02-04T07:57:13.570Z,3.40
2019-02-04T07:59:42.932Z,3.30
2019-02-04T08:02:15.365Z,3.33
2019-02-04T08:04:44.902Z,2.80
2019-02-04T08:07:15.233Z,2.70
2019-02-04T08:09:44.549Z,3.20
2019-02-04T08:12:15.609Z,3.53
2019-02-04T08:14:48.072Z,4.07
2019-02-04T08:17:17.262Z,3.57
2019-02-04T08:19:47.470Z,3.07
2019-02-04T08:22:18.772Z,3.17
2019-02-04T08:24:51.408Z,3.53
2019-02-04T08:27:20.808Z,3.03
2019-02-04T08:29:51.737Z,3.20
2019-02-04T08:32:21.257Z,2.73
2019-02-04T08:35:04.075Z,3.27
2019-02-04T08:37:33.682Z,2.90
2019-02-04T08:40:03.504Z,2.70
2019-02-04T08:42:36.618Z,3.10
2019-02-04T08:45:10.201Z,3.53
2019-02-04T08:47:39.892Z,3.80
2019-02-04T08:50:14.906Z,3.27
2019-02-04T08:52:44.823Z,3.80
2019-02-04T08:55:15.999Z,3.93
2019-02-04T08:57:53.691Z,3.30
2019-02-04T09:00:24.593Z,3.13
2019-02-04T09:02:54.294Z,3.10
2019-02-04T09:05:24.743Z,3.20
2019-02-04T09:07:54.254Z,3.67
2019-02-04T09:10:26.498Z,3.03
2019-02-04T09:13:14.357Z,2.97
2019-02-04T09:15:44.337Z,3.03
2019-02-04T09:18:13.760Z,3.70
2019-02-04T09:20:50.767Z,3.50
2019-02-04T09:23:22.307Z,3.20
2019-02-04T09:25:51.270Z,2.93
2019-02-04T09:28:22.541Z,3.73
2019-02-04T09:30:51.749Z,3.20
2019-02-04T09:33:21.230Z,3.13
2019-02-04T09:35:50.771Z,3.03
2019-02-04T09:38:20.218Z,3.37
2019-02-04T09:40:51.818Z,2.87
2019-02-04T09:43:21.146Z,3.10
2019-02-04T09:45:50.768Z,3.40
2019-02-04T09:48:41.884Z,4.10
2019-02-04T09:51:11.759Z,3.20
2019-02-04T09:53:41.927Z,3.40
2019-02-04T09:56:11.331Z,3.07
2019-02-04T09:58:42.254Z,3.50
2019-02-04T10:01:12.344Z,3.80
2019-02-04T10:03:43.220Z,3.27
2019-02-04T10:06:14.182Z,3.17
2019-02-04T10:08:43.875Z,3.37
2019-02-04T10:11:13.962Z,3.40
2019-02-04T10:13:43.641Z,3.87
2019-02-04T10:16:13.177Z,3.30
2019-02-04T10:18:42.622Z,3.27
2019-02-04T10:21:14.660Z,3.17
2019-02-04T10:23:45.281Z,2.90
2019-02-04T10:26:16.209Z,3.40
2019-02-04T10:28:45.657Z,2.77
2019-02-04T10:31:15.329Z,3.10
2019-02-04T10:33:44.815Z,2.80
2019-02-04T10:36:14.538Z,3.03
2019-02-04T10:38:44.175Z,2.67
2019-02-04T10:41:17.351Z,2.60
2019-02-04T10:43:46.990Z,2.40
2019-02-04T10:46:23.958Z,2.30
2019-02-04T10:48:51.606Z,2.70
2019-02-04T10:51:20.895Z,2.47
2019-02-04T10:53:50.978Z,2.83
2019-02-04T10:56:22.944Z,2.43
2019-02-04T10:58:54.197Z,2.63
2019-02-04T11:01:23.582Z,2.70
2019-02-04T11:04:01.065Z,2.60
2019-02-04T11:06:33.798Z,2.40
2019-02-04T11:09:03.771Z,2.33
2019-02-04T11:11:40.074Z,2.63
2019-02-04T11:14:06.686Z,3.00
2019-02-04T11:16:45.093Z,3.33
2019-02-04T11:19:18.408Z,2.50
2019-02-04T11:21:48.949Z,2.80
2019-02-04T11:24:21.178Z,3.00
2019-02-04T11:26:50.415Z,3.03
2019-02-04T11:29:19.746Z,2.93
2019-02-04T11:31:55.477Z,3.30
2019-02-04T11:34:28.285Z,3.13
2019-02-04T11:36:58.175Z,3.43
2019-02-04T11:39:28.201Z,3.50
2019-02-04T11:42:13.362Z,3.10
2019-02-04T11:45:09.317Z,3.80
2019-02-04T11:47:38.800Z,3.07
2019-02-04T11:50:11.906Z,3.07
2019-02-04T11:52:41.612Z,3.03
2019-02-04T11:55:18.423Z,2.90
2019-02-04T11:57:47.834Z,3.10
2019-02-04T12:00:22.591Z,3.40
2019-02-04T12:02:52.693Z,3.80
2019-02-04T12:05:24.243Z,3.00
2019-02-04T12:07:53.956Z,2.83
2019-02-04T12:10:28.492Z,3.27
2019-02-04T12:12:57.480Z,3.30
2019-02-04T12:15:27.233Z,2.97
2019-02-04T12:17:57.582Z,2.77
2019-02-04T12:20:28.715Z,3.27
2019-02-04T12:22:59.396Z,2.67
2019-02-04T12:25:29.170Z,3.20
2019-02-04T12:27:59.018Z,3.30
2019-02-04T12:30:34.017Z,3.13
2019-02-04T12:33:04.596Z,2.73
2019-02-04T12:35:34.801Z,3.07
2019-02-04T12:38:05.352Z,2.67
2019-02-04T12:40:36.269Z,3.30
2019-02-04T12:43:05.408Z,2.77
2019-02-04T12:45:41.068Z,3.23
2019-02-04T12:48:10.550Z,3.13
2019-02-04T12:50:39.902Z,2.87
2019-02-04T12:53:10.384Z,3.00
2019-02-04T12:55:40.221Z,2.73
2019-02-04T12:58:09.692Z,2.70
2019-02-04T13:00:39.312Z,2.90
2019-02-04T13:03:08.425Z,2.97
2019-02-04T13:05:45.989Z,2.90
2019-02-04T13:08:15.486Z,2.67
2019-02-04T13:10:49.074Z,2.93
2019-02-04T13:13:18.200Z,3.03
2019-02-04T13:15:47.461Z,3.27
2019-02-04T13:18:17.156Z,2.97
2019-02-04T13:20:46.755Z,3.00
2019-02-04T13:23:20.118Z,3.10
2019-02-04T13:25:49.421Z,3.00
2019-02-04T13:28:20.737Z,3.33
2019-02-04T13:30:50.108Z,3.77
2019-02-04T13:33:21.302Z,3.50
2019-02-04T13:35:50.803Z,3.53
2019-02-04T13:38:20.355Z,3.50
2019-02-04T13:41:06.970Z,3.53
2019-02-04T13:43:36.436Z,3.87
2019-02-04T13:46:08.534Z,3.20
2019-02-04T13:48:39.378Z,3.27
2019-02-04T13:51:08.912Z,3.40
2019-02-04T13:53:38.633Z,2.93
2019-02-04T13:56:07.939Z,3.00
2019-02-04T13:58:37.389Z,3.70
2019-02-04T14:01:06.605Z,3.13
2019-02-04T14:03:36.033Z,3.57
2019-02-04T14:06:09.006Z,3.67
2019-02-04T14:08:38.438Z,3.07
2019-02-04T14:11:09.368Z,3.20
2019-02-04T14:13:38.924Z,3.40
2019-02-04T14:16:08.260Z,3.60
2019-02-04T14:18:39.967Z,3.20
2019-02-04T14:21:09.414Z,3.30
2019-02-04T14:23:39.801Z,3.17
2019-02-04T14:26:09.746Z,3.10
2019-02-04T14:28:42.356Z,3.57
2019-02-04T14:31:12.063Z,3.47
2019-02-04T14:33:49.035Z,3.50
2019-02-04T14:36:24.757Z,3.17
2019-02-04T14:38:55.646Z,3.40
2019-02-04T14:41:25.048Z,3.20
2019-02-04T14:43:54.360Z,3.07
2019-02-04T14:46:35.775Z,3.60
2019-02-04T14:49:23.000Z,3.10
2019-02-04T14:52:21.915Z,4.25
2019-02-04T14:55:00.646Z,3.23
2019-02-04T14:57:45.096Z,3.67
2019-02-04T15:00:31.545Z,3.10
2019-02-04T15:03:30.662Z,3.75
2019-02-04T15:06:23.791Z,2.90
2019-02-04T15:09:15.268Z,3.85
2019-02-04T15:12:01.869Z,3.70
2019-02-04T15:14:46.762Z,2.90
2019-02-04T15:17:19.356Z,3.00
2019-02-04T15:20:07.117Z,3.77
2019-02-04T15:22:54.634Z,3.00
2019-02-04T15:25:56.107Z,3.60
2019-02-04T15:28:43.063Z,3.40
2019-02-04T15:31:31.591Z,3.90
2019-02-04T15:34:17.845Z,3.27
2019-02-04T15:36:57.141Z,3.50
2019-02-04T15:39:32.175Z,3.50
2019-02-04T15:42:32.612Z,4.13
2019-02-04T15:45:15.946Z,3.13
2019-02-04T15:47:59.119Z,3.50
2019-02-04T15:50:57.255Z,3.57
2019-02-04T15:53:26.841Z,3.30
2019-02-04T15:55:57.858Z,3.43
2019-02-04T15:58:29.273Z,3.73
2019-02-04T16:01:04.853Z,3.50
2019-02-04T16:03:36.400Z,3.57
2019-02-04T16:06:08.171Z,4.00
2019-02-04T16:08:38.469Z,3.97
2019-02-04T16:11:15.530Z,3.63
2019-02-04T16:13:45.962Z,3.63
2019-02-04T16:16:32.438Z,4.40
2019-02-04T16:19:03.239Z,3.97
2019-02-04T16:21:34.252Z,3.77
2019-02-04T16:24:03.683Z,4.40
2019-02-04T16:26:33.156Z,4.30
2019-02-04T16:29:02.537Z,4.30
2019-02-04T16:31:31.927Z,4.20
2019-02-04T16:34:01.533Z,4.17
2019-02-04T16:36:32.712Z,4.50
2019-02-04T16:39:03.131Z,4.20
2019-02-04T16:41:35.351Z,4.80
2019-02-04T16:44:09.767Z,4.67
2019-02-04T16:46:42.059Z,4.17
2019-02-04T16:49:11.226Z,4.07
2019-02-04T16:51:40.553Z,4.67
2019-02-04T16:54:14.326Z,4.40
2019-02-04T16:56:43.674Z,4.43
2019-02-04T16:59:14.803Z,4.47
2019-02-04T17:01:44.709Z,4.63
2019-02-04T17:04:13.833Z,4.57
2019-02-04T17:06:43.599Z,4.20
2019-02-04T17:09:15.272Z,4.43
2019-02-04T17:11:44.623Z,4.37
2019-02-04T17:14:14.634Z,5.20
2019-02-04T17:16:46.076Z,4.50
2019-02-04T17:19:27.010Z,4.30
2019-02-04T17:21:57.525Z,4.53
2019-02-04T17:24:26.843Z,3.50
2019-02-04T17:26:56.807Z,4.70
2019-02-04T17:29:27.108Z,4.70
2019-02-04T17:31:56.299Z,4.67
2019-02-04T17:34:25.679Z,4.63
2019-02-04T17:36:54.823Z,4.00
2019-02-04T17:39:24.078Z,3.80
2019-02-04T17:41:55.662Z,4.47
2019-02-04T17:44:26.027Z,4.20
2019-02-04T17:46:55.281Z,4.33
2019-02-04T17:49:24.421Z,4.17
2019-02-04T17:51:53.697Z,4.40
2019-02-04T17:54:26.577Z,4.47
2019-02-04T17:56:55.913Z,3.83
2019-02-04T17:59:25.069Z,3.73
2019-02-04T18:01:54.411Z,3.60
2019-02-04T18:04:23.561Z,4.20
2019-02-04T18:06:54.183Z,3.70
2019-02-04T18:09:25.842Z,3.73
2019-02-04T18:11:58.825Z,3.63
2019-02-04T18:14:28.106Z,3.60
2019-02-04T18:17:05.795Z,3.27
2019-02-04T18:19:35.977Z,3.07
2019-02-04T18:22:07.980Z,3.17
2019-02-04T18:24:37.386Z,3.77
2019-02-04T18:27:11.872Z,3.77
2019-02-04T18:29:40.980Z,3.20
2019-02-04T18:32:11.282Z,3.20
2019-02-04T18:34:43.108Z,3.10
2019-02-04T18:37:18.165Z,3.00
2019-02-04T18:39:55.868Z,3.40
2019-02-04T18:42:26.972Z,3.47
2019-02-04T18:44:56.055Z,3.33
2019-02-04T18:47:27.110Z,3.13
2019-02-04T18:49:56.393Z,3.40
2019-02-04T18:52:25.993Z,2.83
2019-02-04T18:54:56.186Z,3.43
2019-02-04T18:57:25.286Z,2.90
2019-02-04T18:59:55.145Z,3.57
2019-02-04T19:02:29.692Z,3.60
2019-02-04T19:05:01.066Z,3.43
2019-02-04T19:07:30.327Z,3.77
2019-02-04T19:10:00.028Z,3.57
2019-02-04T19:12:29.157Z,3.97
2019-02-04T19:14:59.715Z,3.90
2019-02-04T19:17:28.814Z,3.70
2019-02-04T19:19:58.305Z,3.77
2019-02-04T19:22:27.557Z,3.13
2019-02-04T19:25:08.578Z,3.53
2019-02-04T19:27:37.796Z,3.27
2019-02-04T19:30:22.174Z,3.20
2019-02-04T19:32:51.756Z,3.50
2019-02-04T19:35:24.113Z,3.43
2019-02-04T19:37:53.542Z,3.83
2019-02-04T19:40:22.741Z,2.77
2019-02-04T19:42:54.407Z,3.03
2019-02-04T19:45:28.742Z,3.03
2019-02-04T19:47:58.345Z,3.40
2019-02-04T19:50:38.345Z,2.80
2019-02-04T19:53:07.831Z,2.70
2019-02-04T19:55:38.125Z,2.67
2019-02-04T19:58:08.291Z,2.33
2019-02-04T20:00:37.768Z,3.03
2019-02-04T20:03:07.280Z,3.20
2019-02-04T20:05:50.997Z,2.40
2019-02-04T20:08:18.419Z,3.20
2019-02-04T20:10:55.820Z,2.73
2019-02-04T20:13:24.426Z,3.03
2019-02-04T20:15:54.041Z,2.80
2019-02-04T20:18:24.053Z,2.73
2019-02-04T20:20:53.256Z,2.73
2019-02-04T20:23:22.594Z,2.87
2019-02-04T20:25:51.659Z,2.63
2019-02-04T20:28:20.937Z,2.53
2019-02-04T20:30:50.129Z,2.40
2019-02-04T20:33:24.022Z,3.00
2019-02-04T20:35:53.311Z,3.20
2019-02-04T20:38:22.774Z,2.80
2019-02-04T20:40:51.879Z,2.53
2019-02-04T20:43:21.054Z,2.40
2019-02-04T20:45:50.331Z,2.80
2019-02-04T20:48:19.541Z,2.70
2019-02-04T20:50:50.563Z,2.13
2019-02-04T20:53:21.253Z,2.90
2019-02-04T20:55:50.334Z,2.37
2019-02-04T20:58:21.947Z,2.63
2019-02-04T21:00:51.092Z,3.00
2019-02-04T21:03:20.817Z,2.83
2019-02-04T21:05:50.614Z,2.70
2019-02-04T21:11:12.216Z,2.70
2019-02-04T21:13:41.359Z,2.57
2019-02-04T21:16:10.764Z,2.43
2019-02-04T21:18:41.928Z,2.80
2019-02-04T21:21:11.489Z,2.47
2019-02-04T21:23:41.177Z,2.93
2019-02-04T21:26:10.456Z,2.33
2019-02-04T21:28:39.526Z,2.47
2019-02-04T21:31:26.002Z,3.00
2019-02-04T21:33:54.758Z,2.40
2019-02-04T21:36:24.012Z,2.13
2019-02-04T21:38:53.229Z,2.77
2019-02-04T21:41:22.334Z,2.87
2019-02-04T21:43:51.525Z,2.63
2019-02-04T21:46:20.784Z,2.57
2019-02-04T21:48:50.146Z,2.83
2019-02-04T21:51:19.237Z,2.43
2019-02-04T21:53:48.427Z,2.63
2019-02-04T21:56:17.616Z,2.70
2019-02-04T21:58:46.811Z,2.37
2019-02-04T22:01:15.942Z,2.63
2019-02-04T22:03:45.138Z,2.67
2019-02-04T22:06:14.311Z,2.73
2019-02-04T22:08:43.832Z,2.43
2019-02-04T22:11:13.293Z,2.20
2019-02-04T22:13:44.746Z,2.70
2019-02-04T22:16:16.157Z,3.00
2019-02-04T22:18:45.522Z,2.40
2019-02-04T22:21:15.056Z,2.73
2019-02-04T22:23:44.285Z,2.50
2019-02-04T22:26:13.576Z,2.27
2019-02-04T22:28:42.836Z,2.50
2019-02-04T22:31:11.952Z,2.07
2019-02-04T22:33:41.135Z,2.37
2019-02-04T22:36:10.360Z,2.70
2019-02-04T22:38:39.499Z,2.50
2019-02-04T22:41:08.669Z,2.20
2019-02-04T22:43:39.005Z,2.50
2019-02-04T22:46:09.963Z,2.20
2019-02-04T22:48:39.072Z,2.27
2019-02-04T22:51:08.282Z,1.77
2019-02-04T22:53:37.455Z,2.30
2019-02-04T22:56:06.652Z,2.20
2019-02-04T22:58:35.814Z,1.90
2019-02-04T23:01:13.659Z,2.20
2019-02-04T23:03:42.950Z,2.53
2019-02-04T23:06:12.592Z,2.13
2019-02-04T23:08:41.745Z,2.10
2019-02-04T23:11:10.868Z,2.17
2019-02-04T23:13:46.007Z,2.10
2019-02-04T23:16:16.141Z,2.10
2019-02-04T23:18:45.734Z,1.90
2019-02-04T23:21:15.519Z,2.03
2019-02-04T23:23:44.848Z,2.30
2019-02-04T23:26:14.274Z,2.30
2019-02-04T23:28:43.845Z,2.20
2019-02-04T23:31:14.095Z,1.67
2019-02-04T23:33:43.201Z,1.80
2019-02-04T23:36:26.006Z,2.10
2019-02-04T23:38:55.568Z,2.07
2019-02-04T23:41:24.827Z,1.83
2019-02-04T23:43:54.019Z,1.97
2019-02-04T23:46:23.249Z,1.80
2019-02-04T23:48:52.352Z,1.70
2019-02-04T23:51:21.507Z,2.70
2019-02-04T23:53:51.230Z,1.93
2019-02-04T23:56:22.737Z,1.77
2019-02-04T23:58:56.698Z,1.73
